Giewont — C6YE4 — position and weather

sailwx.info

Track history (hours):
 
Tides and Currents Weather Stations Pressure Air Temp Water Temp Dewpoint Dewpoint Depression Visibility Wind Speed Wind Dir Waves Ship Positions

Giewont

Last reported at 2017-Apr-22 10:13 UTC. Time now 2017-Apr-26 12:00 UTC.
Position N 37°22' E 025°55'.

Length 229 m; draft 12.8 m.

Type: Cargo ship. MMSI: 311029800.

Date/timePositionNaut miles runAvg speedWind from/ knotsBaromVisibWave heightAir tempDewpointWater temp
2017-Apr-22 10:13N 37°22' E 025°55'312.1
2017-Apr-22 10:01N 37°24' E 025°53'611.7
2017-Apr-22 09:31N 37°29' E 025°49'612.0
2017-Apr-22 08:58N 37°35' E 025°46'611.9
2017-Apr-22 08:28N 37°41' E 025°44'511.6
2017-Apr-22 08:00N 37°46' E 025°42'611.8
2017-Apr-22 07:30N 37°51' E 025°39'238 8.6
2017-Apr-21 03:52N 40°57' E 028°54'331 9.5
2017-Apr-19 17:04N 46°16' E 030°54'511.2
2017-Apr-19 16:35N 46°22' E 030°55'111.3
2017-Apr-19 16:27N 46°23' E 030°55'511.3
2017-Apr-19 15:59N 46°28' E 030°55'4 9.2
2017-Apr-19 15:30N 46°33' E 030°57'  
2017-Apr-13 21:43N 46°34' E 031°05'0 0.1
2017-Apr-13 19:43N 46°34' E 031°05'0 0.1
2017-Apr-13 19:07N 46°34' E 031°05'0 0.0
2017-Apr-13 18:49N 46°34' E 031°05'0 0.0
2017-Apr-13 04:25N 46°34' E 031°05'0 0.0
2017-Apr-13 03:43N 46°34' E 031°05'0 0.0
2017-Apr-13 03:13N 46°34' E 031°05'0 0.0
2017-Apr-13 02:49N 46°34' E 031°05'  
Track history (hours):
 
Tides and Currents Weather Stations Pressure Air Temp Water Temp Dewpoint Dewpoint Depression Visibility Wind Speed Wind Dir Waves Ship Positions

Giewont

Last reported at 2017-Apr-22 10:13 UTC. Time now 2017-Apr-26 12:00 UTC.
Position N 37°22' E 025°55'.

Length 229 m; draft 12.8 m.

Type: Cargo ship. MMSI: 311029800.

Date/timePositionNaut miles runAvg speedWind from/ knotsBaromVisibWave heightAir tempDewpointWater temp
2017-Apr-22 10:13N 37°22' E 025°55'312.1
2017-Apr-22 10:01N 37°24' E 025°53'611.7
2017-Apr-22 09:31N 37°29' E 025°49'612.0
2017-Apr-22 08:58N 37°35' E 025°46'611.9
2017-Apr-22 08:28N 37°41' E 025°44'511.6
2017-Apr-22 08:00N 37°46' E 025°42'611.8
2017-Apr-22 07:30N 37°51' E 025°39'238 8.6
2017-Apr-21 03:52N 40°57' E 028°54'331 9.5
2017-Apr-19 17:04N 46°16' E 030°54'511.2
2017-Apr-19 16:35N 46°22' E 030°55'111.3
2017-Apr-19 16:27N 46°23' E 030°55'511.3
2017-Apr-19 15:59N 46°28' E 030°55'4 9.2
2017-Apr-19 15:30N 46°33' E 030°57'  
2017-Apr-13 21:43N 46°34' E 031°05'0 0.1
2017-Apr-13 19:43N 46°34' E 031°05'0 0.1
2017-Apr-13 19:07N 46°34' E 031°05'0 0.0
2017-Apr-13 18:49N 46°34' E 031°05'0 0.0
2017-Apr-13 04:25N 46°34' E 031°05'0 0.0
2017-Apr-13 03:43N 46°34' E 031°05'0 0.0
2017-Apr-13 03:13N 46°34' E 031°05'0 0.0
2017-Apr-13 02:49N 46°34' E 031°05'  

Dump ship's entire track history